Time;durP1;ratioP1;P1;durP2;ratioP2;P2;SDS_P1;SDS_P2;PMS_P1;PMS_P2;Temp;Humidity;BMP_temperature;BMP_pressure;BME280_temperature;BME280_humidity;BME280_pressure;Samples;Min_cycle;Max_cycle;Signal;HPM_P1;HPM_P2
2024/04/10 00:00:38;;;;;;;1.75;0.82;;;;;;;9.34;100.00;93560.34;2100135;28;20028;-83
2024/04/10 00:01:39;;;;;;;4.65;0.80;;;;;;;9.34;100.00;93563.78;2106185;28;20111;-81
2024/04/10 00:02:41;;;;;;;3.95;1.00;;;;;;;9.28;100.00;93562.69;2101646;27;20028;-83
2024/04/10 00:03:42;;;;;;;2.65;0.98;;;;;;;9.26;100.00;93556.25;2110642;28;20515;-82
2024/04/10 00:04:46;;;;;;;5.55;1.00;;;;;;;9.47;100.00;93557.94;2091851;28;20040;-82
2024/04/10 00:06:00;;;;;;;5.13;1.38;;;;;;;9.47;100.00;93569.38;2083555;28;20029;-82
2024/04/10 00:07:01;;;;;;;3.28;0.88;;;;;;;9.30;100.00;93568.38;2084252;28;20522;-83
2024/04/10 00:08:02;;;;;;;6.13;1.10;;;;;;;9.27;100.00;93571.88;2089732;28;20653;-81
2024/04/10 00:09:03;;;;;;;5.18;1.20;;;;;;;9.32;100.00;93573.34;2089218;28;20108;-84
2024/04/10 00:10:04;;;;;;;4.03;0.90;;;;;;;9.38;100.00;93577.09;2107037;28;20515;-83
2024/04/10 00:11:06;;;;;;;2.15;0.70;;;;;;;9.65;100.00;93579.09;2099081;28;20115;-84
2024/04/10 00:12:07;;;;;;;1.95;0.90;;;;;;;9.56;100.00;93583.00;2097169;28;20020;-81
2024/04/10 00:13:08;;;;;;;6.18;1.00;;;;;;;9.36;100.00;93582.06;2101691;28;20028;-85
2024/04/10 00:14:09;;;;;;;2.97;1.20;;;;;;;9.27;100.00;93579.88;2099118;28;20052;-81
2024/04/10 00:15:10;;;;;;;5.50;1.10;;;;;;;9.42;100.00;93582.41;2097470;28;20043;-81
2024/04/10 00:16:11;;;;;;;4.50;0.90;;;;;;;9.22;100.00;93582.19;2098196;28;20449;-83
2024/04/10 00:17:12;;;;;;;6.03;0.90;;;;;;;9.27;100.00;93584.44;2099587;28;20091;-81
2024/04/10 00:18:13;;;;;;;3.92;0.80;;;;;;;9.10;100.00;93580.78;2089897;28;20437;-85
2024/04/10 00:19:14;;;;;;;3.47;0.93;;;;;;;9.27;100.00;93587.13;2103771;28;20054;-83
2024/04/10 00:20:15;;;;;;;3.22;0.80;;;;;;;9.40;100.00;93584.72;2103664;28;20074;-81
2024/04/10 00:21:16;;;;;;;2.58;0.70;;;;;;;9.25;100.00;93582.16;2090177;28;20453;-85
2024/04/10 00:22:17;;;;;;;3.53;1.00;;;;;;;9.40;100.00;93588.13;2095432;28;20722;-82
2024/04/10 00:23:20;;;;;;;3.83;0.95;;;;;;;9.48;100.00;93581.56;2106747;28;20074;-81
2024/04/10 00:24:21;;;;;;;1.55;0.70;;;;;;;9.11;100.00;93574.28;2106461;28;20107;-79
2024/04/10 00:25:22;;;;;;;2.47;0.95;;;;;;;9.00;100.00;93579.72;2097948;28;20117;-84
2024/04/10 00:26:23;;;;;;;3.20;1.30;;;;;;;9.02;100.00;93569.41;2097860;28;20028;-80
2024/04/10 00:27:24;;;;;;;4.03;0.98;;;;;;;9.21;100.00;93575.34;2109459;28;20071;-82
2024/04/10 00:28:28;;;;;;;2.28;0.80;;;;;;;9.25;100.00;93571.50;2115315;28;20527;-80
2024/04/10 00:29:29;;;;;;;2.72;0.93;;;;;;;9.02;100.00;93577.41;2106464;28;20465;-83
2024/04/10 00:30:30;;;;;;;3.35;0.77;;;;;;;9.08;100.00;93573.16;2110212;28;20100;-82
2024/04/10 00:31:31;;;;;;;2.50;0.85;;;;;;;9.04;100.00;93577.00;2102512;28;20080;-84
2024/04/10 00:32:34;;;;;;;3.42;0.90;;;;;;;8.89;100.00;93568.38;2100578;28;20066;-81
2024/04/10 00:33:38;;;;;;;3.85;0.93;;;;;;;8.97;100.00;93572.50;2106391;28;20028;-80
2024/04/10 00:34:39;;;;;;;2.70;0.70;;;;;;;9.02;100.00;93566.75;2102227;28;20425;-81
2024/04/10 00:35:40;;;;;;;5.18;1.33;;;;;;;8.79;100.00;93563.91;2107970;28;20035;-84
2024/04/10 00:36:41;;;;;;;3.22;0.88;;;;;;;8.81;100.00;93566.91;2095701;28;20128;-81
2024/04/10 00:37:42;;;;;;;3.08;0.82;;;;;;;8.73;100.00;93576.88;2086578;28;20021;-81
2024/04/10 00:38:43;;;;;;;4.28;0.95;;;;;;;8.81;100.00;93572.25;2103289;28;20050;-80
2024/04/10 00:39:44;;;;;;;3.75;1.13;;;;;;;9.25;100.00;93568.81;2097689;28;20033;-81
2024/04/10 00:40:58;;;;;;;4.55;0.93;;;;;;;8.92;100.00;93564.94;2109999;28;20023;-83
2024/04/10 00:41:59;;;;;;;2.65;1.10;;;;;;;9.08;100.00;93567.81;2089172;28;20063;-82
2024/04/10 00:43:03;;;;;;;3.80;0.88;;;;;;;9.02;100.00;93569.41;2089616;28;20095;-83
2024/04/10 00:44:11;;;;;;;2.17;0.95;;;;;;;8.88;100.00;93566.88;2094054;28;20019;-81
2024/04/10 00:45:12;;;;;;;3.40;0.80;;;;;;;8.73;100.00;93565.44;2102898;28;20028;-82
2024/04/10 00:46:22;;;;;;;3.03;0.90;;;;;;;8.85;100.00;93575.66;2090257;28;20521;-84
2024/04/10 00:47:23;;;;;;;5.13;1.25;;;;;;;8.67;100.00;93567.03;2097371;28;20477;-83
2024/04/10 00:48:24;;;;;;;1.95;0.80;;;;;;;8.71;100.00;93570.44;2105854;28;20048;-86
2024/04/10 00:49:26;;;;;;;1.80;0.70;;;;;;;8.61;100.00;93579.25;2099253;28;20063;-80
2024/04/10 00:50:29;;;;;;;2.75;0.90;;;;;;;8.64;100.00;93579.22;2111442;28;20392;-85
2024/04/10 00:51:30;;;;;;;5.15;0.80;;;;;;;8.85;100.00;93578.31;2089989;28;20032;-84
2024/04/10 00:52:32;;;;;;;5.10;0.80;;;;;;;8.62;100.00;93578.88;2092912;28;20021;-84
2024/04/10 00:53:34;;;;;;;2.63;0.93;;;;;;;8.44;100.00;93584.31;2097895;28;20021;-83
2024/04/10 00:54:37;;;;;;;4.28;0.80;;;;;;;8.33;100.00;93584.31;2105181;28;20085;-81
2024/04/10 00:55:39;;;;;;;1.73;0.63;;;;;;;8.47;100.00;93577.44;2105845;28;20381;-82
2024/04/10 00:56:40;;;;;;;4.13;0.80;;;;;;;8.42;100.00;93578.59;2097677;28;20029;-83
2024/04/10 00:57:42;;;;;;;1.50;0.80;;;;;;;8.21;100.00;93574.16;2084225;28;20033;-82
2024/04/10 00:58:44;;;;;;;3.55;1.00;;;;;;;8.19;100.00;93575.66;2105145;28;20462;-81
2024/04/10 00:59:45;;;;;;;1.80;0.80;;;;;;;7.88;100.00;93570.09;2089485;28;20029;-86
2024/04/10 01:00:46;;;;;;;2.50;1.00;;;;;;;7.93;100.00;93576.94;2092951;28;20016;-83
2024/04/10 01:01:47;;;;;;;3.20;1.00;;;;;;;8.01;100.00;93568.53;2097417;28;20025;-83
2024/04/10 01:02:48;;;;;;;2.50;0.70;;;;;;;7.98;100.00;93563.97;2102922;28;20051;-83
2024/04/10 01:03:49;;;;;;;3.15;1.00;;;;;;;7.95;100.00;93570.09;2100668;28;20115;-85
2024/04/10 01:04:50;;;;;;;6.00;1.00;;;;;;;7.71;100.00;93577.00;2103705;28;20031;-82
2024/04/10 01:06:01;;;;;;;3.95;1.30;;;;;;;7.89;100.00;93582.25;2102354;28;20027;-85
2024/04/10 01:07:11;;;;;;;2.92;0.80;;;;;;;7.89;100.00;93578.84;2094797;28;20042;-87
2024/04/10 01:08:12;;;;;;;;;;;;;;;8.03;100.00;93581.44;2108043;28;20062;-81
2024/04/10 01:09:15;;;;;;;2.40;1.00;;;;;;;8.28;100.00;93581.31;2093261;28;20015;-84
2024/04/10 01:10:16;;;;;;;2.38;0.85;;;;;;;8.24;100.00;93589.31;2089286;28;20055;-82
2024/04/10 01:11:17;;;;;;;3.55;1.00;;;;;;;7.83;100.00;93587.22;2097520;28;20119;-83
2024/04/10 01:12:18;;;;;;;1.67;0.70;;;;;;;8.15;100.00;93589.00;2097247;28;20028;-83
2024/04/10 01:13:19;;;;;;;3.05;0.88;;;;;;;8.20;100.00;93593.16;2103501;28;20043;-82
2024/04/10 01:14:20;;;;;;;2.10;0.80;;;;;;;8.27;100.00;93590.47;2091542;28;20495;-86
2024/04/10 01:15:28;;;;;;;2.40;0.98;;;;;;;8.42;100.00;93593.81;2112294;28;20092;-84
2024/04/10 01:16:31;;;;;;;1.52;0.60;;;;;;;8.47;100.00;93602.19;2106047;28;20412;-84
2024/04/10 01:17:32;;;;;;;2.58;0.82;;;;;;;8.51;100.00;93599.47;2092734;28;20067;-83
2024/04/10 01:18:33;;;;;;;2.92;1.00;;;;;;;8.27;100.00;93607.19;2081143;28;20474;-82
2024/04/10 01:19:34;;;;;;;2.60;0.75;;;;;;;8.35;100.00;93599.94;2104337;28;20016;-82
2024/04/10 01:20:35;;;;;;;3.47;0.80;;;;;;;8.10;100.00;93608.03;2108641;28;20027;-84
2024/04/10 01:21:36;;;;;;;2.38;0.75;;;;;;;7.84;100.00;93609.28;2102914;28;20020;-84
2024/04/10 01:22:37;;;;;;;3.45;1.08;;;;;;;7.81;100.00;93604.72;2095741;28;20049;-84
2024/04/10 01:23:37;;;;;;;3.30;0.70;;;;;;;7.90;100.00;93605.09;2102977;28;20674;-83
2024/04/10 01:24:38;;;;;;;2.00;0.82;;;;;;;7.95;100.00;93604.69;2089447;28;20135;-83
2024/04/10 01:25:39;;;;;;;3.13;0.90;;;;;;;7.87;100.00;93608.53;2099239;28;20025;-87
2024/04/10 01:26:40;;;;;;;4.05;1.05;;;;;;;7.60;100.00;93610.88;2107496;28;20039;-84
2024/04/10 01:27:41;;;;;;;4.47;0.80;;;;;;;8.07;100.00;93614.13;2106756;28;20133;-86
2024/04/10 01:28:42;;;;;;;1.05;0.70;;;;;;;7.47;100.00;93625.72;2105637;28;20024;-85
2024/04/10 01:29:43;;;;;;;1.65;0.95;;;;;;;7.58;100.00;93621.91;2097056;28;20542;-81
2024/04/10 01:30:44;;;;;;;4.72;1.15;;;;;;;7.56;100.00;93629.50;2089044;28;20384;-82
2024/04/10 01:31:45;;;;;;;3.15;0.80;;;;;;;7.86;100.00;93625.63;2085720;28;20415;-84
2024/04/10 01:32:46;;;;;;;2.03;0.90;;;;;;;7.95;100.00;93618.00;2095063;28;20048;-83
2024/04/10 01:33:47;;;;;;;2.88;1.00;;;;;;;8.11;100.00;93617.53;2097250;28;20036;-83
2024/04/10 01:34:48;;;;;;;2.10;0.90;;;;;;;8.05;100.00;93616.44;2088459;28;20047;-84
2024/04/10 01:35:49;;;;;;;4.40;1.20;;;;;;;7.92;100.00;93621.44;2099919;28;20733;-85
2024/04/10 01:36:52;;;;;;;1.98;0.68;;;;;;;7.91;100.00;93619.16;2105145;28;20020;-82
2024/04/10 01:37:53;;;;;;;1.85;0.63;;;;;;;7.97;100.00;93613.03;2106004;28;20019;-85
2024/04/10 01:38:54;;;;;;;2.92;0.90;;;;;;;7.77;100.00;93614.63;2107843;28;20028;-86
2024/04/10 01:39:55;;;;;;;2.13;0.82;;;;;;;7.97;100.00;93618.34;2097351;28;20142;-81
2024/04/10 01:40:56;;;;;;;3.17;0.80;;;;;;;7.70;100.00;93614.66;2096686;28;20457;-84
2024/04/10 01:41:57;;;;;;;3.42;0.93;;;;;;;7.57;100.00;93628.34;2105350;28;20115;-82
2024/04/10 01:42:58;;;;;;;2.20;0.70;;;;;;;7.76;100.00;93629.06;2103864;28;20024;-84
2024/04/10 01:43:59;;;;;;;1.40;0.57;;;;;;;7.93;100.00;93628.25;2108544;28;20134;-84
2024/04/10 01:45:03;;;;;;;2.08;0.70;;;;;;;8.24;100.00;93633.84;2097140;28;20029;-82
2024/04/10 01:46:04;;;;;;;2.70;0.70;;;;;;;7.91;100.00;93635.13;2097028;28;20037;-82
2024/04/10 01:47:05;;;;;;;2.05;0.70;;;;;;;7.93;100.00;93630.91;2108079;28;20084;-83
2024/04/10 01:48:06;;;;;;;2.17;1.02;;;;;;;8.15;100.00;93625.53;2110015;28;20073;-83
2024/04/10 01:49:07;;;;;;;3.83;0.55;;;;;;;8.00;100.00;93635.47;2112927;28;20426;-83
2024/04/10 01:50:08;;;;;;;1.48;0.80;;;;;;;8.00;100.00;93627.50;2112367;28;20087;-85
2024/04/10 01:51:10;;;;;;;4.03;0.85;;;;;;;7.94;100.00;93629.78;2095602;28;20175;-82
2024/04/10 01:52:11;;;;;;;3.35;1.00;;;;;;;8.04;100.00;93626.31;2097382;28;20081;-84
2024/04/10 01:53:12;;;;;;;4.93;1.10;;;;;;;7.99;100.00;93626.72;2111238;28;20076;-85
2024/04/10 01:54:13;;;;;;;3.28;0.80;;;;;;;7.79;100.00;93629.06;2103076;28;20059;-84
2024/04/10 01:55:14;;;;;;;3.78;0.93;;;;;;;7.72;100.00;93631.75;2101601;28;20105;-84
2024/04/10 01:56:15;;;;;;;3.42;0.80;;;;;;;7.97;100.00;93630.91;2101674;28;20111;-83
2024/04/10 01:57:16;;;;;;;1.50;0.70;;;;;;;7.60;100.00;93631.41;2113839;28;20189;-82
2024/04/10 01:58:17;;;;;;;4.15;0.68;;;;;;;7.58;100.00;93637.84;2107177;28;20016;-83
2024/04/10 01:59:18;;;;;;;2.72;0.70;;;;;;;7.51;100.00;93631.81;2109633;28;20665;-86
2024/04/10 02:00:21;;;;;;;1.40;0.60;;;;;;;7.52;100.00;93631.41;2111633;27;20027;-86
2024/04/10 02:01:27;;;;;;;2.47;0.73;;;;;;;7.59;100.00;93630.63;2108554;28;20039;-83
2024/04/10 02:02:28;;;;;;;2.55;0.70;;;;;;;7.60;100.00;93636.72;2089074;28;20139;-85
2024/04/10 02:03:30;;;;;;;2.47;0.73;;;;;;;7.49;100.00;93632.19;2097559;28;20067;-83
2024/04/10 02:04:30;;;;;;;3.83;1.10;;;;;;;7.39;100.00;93635.63;2107944;28;20059;-85
2024/04/10 02:05:31;;;;;;;4.40;1.33;;;;;;;7.46;100.00;93630.31;2109013;28;20149;-84
2024/04/10 02:06:32;;;;;;;1.95;0.80;;;;;;;7.34;100.00;93636.00;2098659;28;20445;-85
2024/04/10 02:07:33;;;;;;;2.65;1.17;;;;;;;7.25;100.00;93640.97;2072979;28;20058;-83
2024/04/10 02:08:34;;;;;;;1.90;0.80;;;;;;;7.35;100.00;93642.09;2080605;28;20021;-81
2024/04/10 02:09:35;;;;;;;1.83;0.80;;;;;;;7.39;100.00;93635.63;2088508;28;20025;-83
2024/04/10 02:10:36;;;;;;;4.78;0.80;;;;;;;7.34;100.00;93641.31;2099408;28;20028;-85
2024/04/10 02:11:40;;;;;;;1.77;0.73;;;;;;;7.30;100.00;93638.66;2091047;28;20166;-87
2024/04/10 02:12:41;;;;;;;2.40;0.80;;;;;;;7.46;100.00;93643.59;2115036;27;20029;-83
2024/04/10 02:13:42;;;;;;;4.95;0.85;;;;;;;7.40;100.00;93642.44;2115948;27;20508;-82
2024/04/10 02:14:43;;;;;;;4.75;0.80;;;;;;;7.58;100.00;93642.41;2099595;28;20074;-85
2024/04/10 02:15:44;;;;;;;2.35;0.90;;;;;;;7.33;100.00;93642.44;2088699;28;20021;-86
2024/04/10 02:16:46;;;;;;;2.35;0.75;;;;;;;7.35;100.00;93642.09;2089018;28;20032;-82
2024/04/10 02:17:47;;;;;;;2.20;0.70;;;;;;;7.22;100.00;93645.13;2105031;28;20027;-82
2024/04/10 02:18:48;;;;;;;2.38;0.80;;;;;;;7.44;100.00;93635.22;2088580;28;20025;-82
2024/04/10 02:19:51;;;;;;;2.28;0.90;;;;;;;7.39;100.00;93638.28;2085834;28;20070;-85
2024/04/10 02:20:59;;;;;;;3.80;0.90;;;;;;;7.39;100.00;93653.47;2097137;28;20055;-85
2024/04/10 02:22:00;;;;;;;3.47;0.80;;;;;;;7.40;100.00;93642.44;2097111;28;20032;-82
2024/04/10 02:23:01;;;;;;;1.73;0.70;;;;;;;7.30;100.00;93651.19;2093016;28;20481;-85
2024/04/10 02:24:02;;;;;;;4.97;0.73;;;;;;;7.17;100.00;93645.50;2108940;28;20158;-83
2024/04/10 02:25:04;;;;;;;3.97;1.05;;;;;;;7.27;100.00;93651.97;2089014;28;20510;-82
2024/04/10 02:26:12;;;;;;;1.98;0.88;;;;;;;7.24;100.00;93653.50;2098670;28;20048;-82
2024/04/10 02:27:13;;;;;;;1.88;0.80;;;;;;;7.31;100.00;93655.38;2088623;28;20505;-83
2024/04/10 02:28:14;;;;;;;1.48;0.90;;;;;;;7.12;100.00;93653.13;2078088;28;20152;-82
2024/04/10 02:29:22;;;;;;;5.97;1.40;;;;;;;7.28;100.00;93648.16;2087427;28;20074;-83
2024/04/10 02:30:23;;;;;;;1.92;0.80;;;;;;;7.02;100.00;93650.06;2098033;28;20024;-86
2024/04/10 02:31:24;;;;;;;1.00;0.80;;;;;;;7.03;100.00;93640.19;2105000;28;20019;-84
2024/04/10 02:32:25;;;;;;;2.55;0.70;;;;;;;6.85;100.00;93652.69;2105364;28;20084;-84
2024/04/10 02:33:26;;;;;;;1.35;0.68;;;;;;;6.91;100.00;93651.19;2097559;28;20079;-84
2024/04/10 02:34:27;;;;;;;3.95;0.90;;;;;;;6.99;100.00;93647.41;2107343;28;20404;-83
2024/04/10 02:35:27;;;;;;;2.13;0.85;;;;;;;6.95;100.00;93638.69;2097160;28;20055;-85
2024/04/10 02:36:29;;;;;;;4.20;0.80;;;;;;;7.07;100.00;93644.38;2085449;28;20047;-86
2024/04/10 02:37:30;;;;;;;0.90;0.70;;;;;;;7.10;100.00;93648.16;2094988;28;20025;-84
2024/04/10 02:38:33;;;;;;;3.90;1.00;;;;;;;7.02;100.00;93652.72;2098096;28;20030;-85
2024/04/10 02:39:34;;;;;;;1.58;0.70;;;;;;;6.89;100.00;93653.47;2100925;28;20465;-82
2024/04/10 02:40:35;;;;;;;2.13;0.70;;;;;;;6.75;100.00;93654.97;2089091;28;20036;-84
2024/04/10 02:41:37;;;;;;;3.97;0.98;;;;;;;6.61;100.00;93654.94;2081152;28;20363;-87
2024/04/10 02:42:40;;;;;;;3.80;0.90;;;;;;;6.77;100.00;93651.94;2090681;28;20070;-84
2024/04/10 02:43:41;;;;;;;4.40;0.70;;;;;;;6.68;100.00;93659.53;2111730;28;20027;-85
2024/04/10 02:44:44;;;;;;;2.55;0.80;;;;;;;6.77;100.00;93659.91;2098170;28;20060;-84
2024/04/10 02:45:55;;;;;;;2.25;0.77;;;;;;;6.93;100.00;93654.22;2089342;28;20523;-81
2024/04/10 02:46:57;;;;;;;4.82;0.80;;;;;;;6.69;100.00;93659.13;2083409;28;20033;-86
2024/04/10 02:48:00;;;;;;;2.95;0.80;;;;;;;6.86;100.00;93659.56;2088531;28;20502;-85
2024/04/10 02:49:01;;;;;;;3.05;0.90;;;;;;;6.92;100.00;93655.38;2098127;28;20036;-83
2024/04/10 02:50:04;;;;;;;5.95;1.23;;;;;;;6.68;100.00;93654.97;2089793;28;20421;-87
2024/04/10 02:51:06;;;;;;;1.80;0.80;;;;;;;6.66;100.00;93670.50;2098981;28;20031;-83
2024/04/10 02:52:07;;;;;;;3.55;1.00;;;;;;;6.52;100.00;93652.66;2089925;28;20398;-83
2024/04/10 02:53:08;;;;;;;2.15;0.90;;;;;;;6.53;100.00;93661.38;2094001;28;20060;-83
2024/04/10 02:54:09;;;;;;;2.33;1.20;;;;;;;6.67;100.00;93647.38;2099767;28;20028;-83
2024/04/10 02:55:09;;;;;;;2.85;0.80;;;;;;;6.73;100.00;93656.50;2088633;28;20029;-85
2024/04/10 02:56:10;;;;;;;1.40;0.73;;;;;;;6.76;100.00;93655.72;2083011;28;20581;-82
2024/04/10 02:57:11;;;;;;;2.65;0.82;;;;;;;6.81;100.00;93658.78;2096967;28;20036;-82
2024/04/10 02:58:13;;;;;;;3.03;1.10;;;;;;;6.88;100.00;93655.34;2096388;28;20063;-83
2024/04/10 02:59:14;;;;;;;4.25;0.85;;;;;;;6.84;100.00;93651.94;2097499;28;20032;-82
2024/04/10 03:00:17;;;;;;;7.80;1.63;;;;;;;6.76;100.00;93661.81;2097003;28;20094;-82
2024/04/10 03:01:18;;;;;;;1.40;0.80;;;;;;;6.75;100.00;93654.22;2111593;28;20031;-81
2024/04/10 03:02:19;;;;;;;2.05;0.75;;;;;;;6.78;100.00;93656.88;2110623;28;20146;-82
2024/04/10 03:03:21;;;;;;;5.60;1.13;;;;;;;6.65;100.00;93657.63;2089546;28;20052;-86
2024/04/10 03:04:22;;;;;;;6.07;1.30;;;;;;;6.79;100.00;93654.97;2082033;28;20029;-86
2024/04/10 03:05:23;;;;;;;2.75;0.80;;;;;;;6.85;100.00;93648.16;2080408;28;20482;-82
2024/04/10 03:06:24;;;;;;;4.50;1.05;;;;;;;6.83;100.00;93645.13;2088265;28;20024;-83
2024/04/10 03:07:25;;;;;;;2.28;1.00;;;;;;;6.77;100.00;93654.59;2097349;28;20036;-86
2024/04/10 03:08:26;;;;;;;2.40;0.88;;;;;;;6.92;100.00;93658.03;2096284;28;20408;-83
2024/04/10 03:09:29;;;;;;;2.05;0.90;;;;;;;6.63;100.00;93652.69;2102889;28;20032;-84
2024/04/10 03:10:30;;;;;;;2.38;0.73;;;;;;;6.71;100.00;93664.06;2104998;28;20361;-85
2024/04/10 03:11:30;;;;;;;3.65;1.15;;;;;;;6.74;100.00;93660.66;2092806;28;20065;-86
2024/04/10 03:12:31;;;;;;;4.10;1.33;;;;;;;6.66;100.00;93661.78;2088762;28;20033;-81
2024/04/10 03:13:32;;;;;;;2.83;0.65;;;;;;;6.40;100.00;93665.50;2090737;28;20093;-83
2024/04/10 03:14:37;;;;;;;3.40;0.80;;;;;;;6.72;100.00;93658.41;2111114;28;20054;-82
2024/04/10 03:15:38;;;;;;;4.43;0.93;;;;;;;6.95;100.00;93673.22;2096885;28;20048;-85
2024/04/10 03:16:38;;;;;;;4.18;0.88;;;;;;;6.88;100.00;93675.88;2081339;28;20446;-85
2024/04/10 03:17:39;;;;;;;1.67;0.70;;;;;;;6.82;100.00;93672.81;2096416;28;20505;-82
2024/04/10 03:18:40;;;;;;;4.70;1.25;;;;;;;6.94;100.00;93675.13;2088662;28;20083;-84
2024/04/10 03:19:42;;;;;;;4.72;1.20;;;;;;;6.84;100.00;93681.16;2098907;28;20039;-83
2024/04/10 03:20:43;;;;;;;4.72;1.10;;;;;;;6.92;100.00;93679.28;2109301;28;20463;-82
2024/04/10 03:21:45;;;;;;;3.53;1.02;;;;;;;6.66;100.00;93675.06;2107389;28;20525;-87
2024/04/10 03:22:46;;;;;;;7.45;1.42;;;;;;;6.62;100.00;93676.94;2107496;28;20028;-82
2024/04/10 03:23:47;;;;;;;3.45;0.95;;;;;;;6.37;100.00;93682.97;2107466;28;20090;-82
2024/04/10 03:24:48;;;;;;;2.97;0.98;;;;;;;6.46;100.00;93680.72;2106715;28;20038;-83
2024/04/10 03:26:12;;;;;;;4.65;0.98;;;;;;;6.60;100.00;93690.63;2100571;28;20436;-83
2024/04/10 03:27:13;;;;;;;3.97;1.10;;;;;;;6.82;100.00;93696.75;2095370;28;20500;-83
2024/04/10 03:28:15;;;;;;;3.80;1.08;;;;;;;6.53;100.00;93695.91;2105915;28;20110;-82
2024/04/10 03:29:16;;;;;;;2.88;0.88;;;;;;;6.85;100.00;93706.63;2105711;28;20155;-83
2024/04/10 03:30:17;;;;;;;5.70;0.80;;;;;;;6.96;100.00;93702.06;2104913;28;20384;-87
2024/04/10 03:31:19;;;;;;;4.30;1.10;;;;;;;6.88;100.00;93705.84;2094446;28;20036;-83
2024/04/10 03:32:20;;;;;;;2.60;0.95;;;;;;;6.95;100.00;93705.88;2090591;28;20468;-83
2024/04/10 03:33:22;;;;;;;5.80;1.50;;;;;;;6.98;100.00;93710.44;2092873;28;20029;-86
2024/04/10 03:34:23;;;;;;;3.13;1.10;;;;;;;6.68;100.00;93705.44;2105452;28;20421;-85
2024/04/10 03:35:24;;;;;;;4.35;1.20;;;;;;;6.89;100.00;93709.25;2098427;28;20119;-85
2024/04/10 03:36:25;;;;;;;5.10;1.25;;;;;;;6.90;100.00;93706.25;2092318;28;20075;-85
2024/04/10 03:37:26;;;;;;;4.78;1.10;;;;;;;6.89;100.00;93703.94;2106423;28;20117;-84
2024/04/10 03:38:27;;;;;;;3.63;1.10;;;;;;;6.75;100.00;93704.69;2112307;28;20634;-85
2024/04/10 03:39:28;;;;;;;6.10;1.10;;;;;;;6.71;100.00;93702.00;2106461;28;20050;-87
2024/04/10 03:40:29;;;;;;;6.00;1.10;;;;;;;7.11;100.00;93710.06;2098371;28;20039;-86
2024/04/10 03:41:33;;;;;;;3.78;1.13;;;;;;;6.57;100.00;93702.75;2087141;28;20096;-87
2024/04/10 03:42:34;;;;;;;6.47;1.10;;;;;;;6.92;100.00;93705.88;2099566;28;20488;-86
2024/04/10 03:43:36;;;;;;;2.28;1.10;;;;;;;6.85;100.00;93708.50;2107788;28;20122;-82
2024/04/10 03:44:37;;;;;;;3.63;1.00;;;;;;;6.86;100.00;93696.75;2097707;28;20028;-82
2024/04/10 03:45:38;;;;;;;4.28;0.88;;;;;;;6.84;100.00;93705.09;2106520;28;20435;-83
2024/04/10 03:46:40;;;;;;;3.95;1.20;;;;;;;6.81;100.00;93706.63;2106107;28;20492;-86
2024/04/10 03:47:41;;;;;;;3.63;0.80;;;;;;;6.70;100.00;93710.38;2108319;28;20401;-83
2024/04/10 03:48:43;;;;;;;5.00;1.30;;;;;;;6.72;100.00;93708.13;2113271;28;20043;-84
2024/04/10 03:49:44;;;;;;;4.70;1.30;;;;;;;6.86;100.00;93713.44;2110110;28;20126;-83
2024/04/10 03:50:45;;;;;;;5.38;1.30;;;;;;;6.68;100.00;93716.06;2089894;28;20036;-83
2024/04/10 03:51:45;;;;;;;3.97;1.15;;;;;;;6.69;100.00;93712.28;2094569;28;20078;-81
2024/04/10 03:52:46;;;;;;;4.20;1.27;;;;;;;6.69;100.00;93706.19;2098102;28;20047;-82
2024/04/10 03:53:47;;;;;;;6.45;1.83;;;;;;;6.79;100.00;93718.75;2098681;28;20035;-82
2024/04/10 03:54:48;;;;;;;4.88;1.40;;;;;;;6.74;100.00;93713.78;2091615;28;20025;-81
2024/04/10 03:55:49;;;;;;;3.95;0.90;;;;;;;6.81;100.00;93721.78;2105703;28;20538;-84
2024/04/10 03:56:50;;;;;;;6.93;1.20;;;;;;;6.74;100.00;93717.22;2101226;28;20027;-81
2024/04/10 03:57:51;;;;;;;5.97;1.35;;;;;;;6.68;100.00;93717.97;2102122;28;20036;-83
2024/04/10 03:58:52;;;;;;;4.78;1.00;;;;;;;6.59;100.00;93714.91;2104785;28;20027;-85
2024/04/10 03:59:53;;;;;;;4.72;1.40;;;;;;;6.77;100.00;93718.38;2103251;28;20484;-85
2024/04/10 04:00:54;;;;;;;4.70;0.93;;;;;;;6.89;100.00;93712.72;2098211;28;20028;-86
2024/04/10 04:01:57;;;;;;;3.13;0.88;;;;;;;6.70;100.00;93710.38;2097806;28;20036;-80
2024/04/10 04:02:58;;;;;;;4.10;1.25;;;;;;;6.86;100.00;93718.00;2105931;28;20099;-81
2024/04/10 04:04:03;;;;;;;4.95;1.17;;;;;;;6.83;100.00;93719.50;2098236;28;20024;-82
2024/04/10 04:05:05;;;;;;;4.15;1.10;;;;;;;6.79;100.00;93722.16;2105683;28;20035;-84
2024/04/10 04:06:06;;;;;;;2.70;1.10;;;;;;;6.74;100.00;93719.09;2111891;28;20027;-89
2024/04/10 04:07:10;;;;;;;2.38;0.90;;;;;;;6.96;100.00;93717.25;2104924;28;20032;-85
2024/04/10 04:08:12;;;;;;;4.43;1.10;;;;;;;7.00;100.00;93724.09;2107316;28;20040;-83
2024/04/10 04:09:13;;;;;;;7.50;1.15;;;;;;;7.01;100.00;93725.63;2106398;28;20129;-81
2024/04/10 04:10:13;;;;;;;4.47;1.00;;;;;;;6.85;100.00;93721.78;2100463;28;20028;-86
2024/04/10 04:11:14;;;;;;;5.63;1.30;;;;;;;6.53;100.00;93728.53;2100024;28;20101;-83
2024/04/10 04:12:15;;;;;;;3.28;1.02;;;;;;;6.75;100.00;93723.28;2082090;28;20064;-81
2024/04/10 04:13:16;;;;;;;5.03;1.20;;;;;;;6.67;100.00;93727.06;2080515;28;20031;-83
2024/04/10 04:14:17;;;;;;;4.55;1.02;;;;;;;6.62;100.00;93735.38;2082061;28;20033;-85
2024/04/10 04:15:19;;;;;;;4.07;1.10;;;;;;;6.40;100.00;93737.22;2102659;28;20032;-83
2024/04/10 04:16:20;;;;;;;2.40;1.30;;;;;;;6.64;100.00;93741.09;2109028;28;20031;-85
2024/04/10 04:17:21;;;;;;;3.38;1.13;;;;;;;6.80;100.00;93744.94;2109591;28;20069;-88
2024/04/10 04:18:22;;;;;;;3.05;0.95;;;;;;;6.79;100.00;93751.38;2105803;28;20020;-82
2024/04/10 04:19:23;;;;;;;3.45;1.50;;;;;;;7.00;100.00;93752.56;2107174;28;20024;-81
2024/04/10 04:20:23;;;;;;;2.35;0.90;;;;;;;7.15;100.00;93750.69;2091434;28;20145;-83
2024/04/10 04:21:24;;;;;;;3.20;1.10;;;;;;;7.04;100.00;93756.00;2081255;28;20071;-86
2024/04/10 04:22:26;;;;;;;8.02;1.23;;;;;;;6.87;100.00;93756.72;2097264;28;20089;-85
2024/04/10 04:23:27;;;;;;;5.32;1.02;;;;;;;6.98;100.00;93752.19;2101668;28;20059;-85
2024/04/10 04:24:28;;;;;;;5.35;1.00;;;;;;;6.95;100.00;93755.59;2089804;28;20052;-83
2024/04/10 04:25:34;;;;;;;4.00;1.15;;;;;;;7.11;100.00;93763.22;2091783;28;20089;-82
2024/04/10 04:26:35;;;;;;;2.70;0.90;;;;;;;7.07;100.00;93757.91;2099630;28;20105;-85
2024/04/10 04:27:41;;;;;;;3.28;1.08;;;;;;;6.94;100.00;93759.41;2108198;28;20047;-85
2024/04/10 04:28:42;;;;;;;5.75;1.20;;;;;;;6.87;100.00;93757.47;2098013;28;20029;-83
2024/04/10 04:29:46;;;;;;;5.78;1.20;;;;;;;6.84;100.00;93758.22;2088928;28;20025;-83
2024/04/10 04:30:49;;;;;;;3.83;1.30;;;;;;;7.12;100.00;93751.47;2088040;28;20161;-83
2024/04/10 04:31:50;;;;;;;3.70;1.27;;;;;;;7.01;100.00;93757.50;2093504;28;20020;-82
2024/04/10 04:32:51;;;;;;;7.05;1.45;;;;;;;7.01;100.00;93760.16;2098000;28;20193;-83
2024/04/10 04:33:54;;;;;;;5.18;1.40;;;;;;;7.03;100.00;93747.28;2093927;28;20035;-83
2024/04/10 04:34:55;;;;;;;3.35;0.93;;;;;;;7.05;100.00;93749.53;2088006;28;20398;-83
2024/04/10 04:35:56;;;;;;;2.42;1.08;;;;;;;7.18;100.00;93760.59;2094012;28;20032;-82
2024/04/10 04:36:59;;;;;;;5.53;1.15;;;;;;;7.13;100.00;93753.75;2099554;28;20342;-81
2024/04/10 04:38:00;;;;;;;3.30;1.33;;;;;;;7.10;100.00;93748.41;2106778;28;20526;-83
2024/04/10 04:39:02;;;;;;;5.07;0.95;;;;;;;7.03;100.00;93749.94;2089005;28;20115;-83
2024/04/10 04:40:06;;;;;;;5.00;1.20;;;;;;;7.03;100.00;93755.25;2083873;28;20021;-84
2024/04/10 04:41:07;;;;;;;4.55;1.00;;;;;;;7.07;100.00;93753.34;2098114;28;20024;-84
2024/04/10 04:42:08;;;;;;;6.65;1.95;;;;;;;7.11;100.00;93749.94;2089393;28;20025;-87
2024/04/10 04:43:09;;;;;;;7.95;2.33;;;;;;;6.95;100.00;93750.28;2089575;28;20032;-84
2024/04/10 04:44:11;;;;;;;5.07;3.05;;;;;;;6.91;100.00;93752.94;2095028;28;20048;-83
2024/04/10 04:45:13;;;;;;;9.50;5.32;;;;;;;7.12;100.00;93759.44;2104257;28;20051;-84
2024/04/10 04:46:16;;;;;;;6.55;4.80;;;;;;;7.07;100.00;93752.59;2103601;28;20492;-83
2024/04/10 04:47:17;;;;;;;9.30;4.57;;;;;;;7.06;100.00;93761.69;2092782;28;20113;-82
2024/04/10 04:48:18;;;;;;;9.15;5.30;;;;;;;6.62;100.00;93756.63;2090401;28;20394;-83
2024/04/10 04:49:20;;;;;;;9.77;4.70;;;;;;;6.62;100.00;93761.94;2095293;28;20452;-82
2024/04/10 04:50:21;;;;;;;8.75;4.85;;;;;;;6.44;100.00;93767.94;2088657;28;20557;-83
2024/04/10 04:51:24;;;;;;;9.55;5.82;;;;;;;6.15;100.00;93766.31;2087472;28;20033;-83